Time;durP1;ratioP1;P1;durP2;ratioP2;P2;SDS_P1;SDS_P2;PMS_P1;PMS_P2;Temp;Humidity;BMP_temperature;BMP_pressure;BME280_temperature;BME280_humidity;BME280_pressure;Samples;Min_cycle;Max_cycle;Signal;HPM_P1;HPM_P2
2021/03/21 00:01:51;;;;;;;8.00;4.72;;;6.40;99.90;;;;;;5086201;28;20051;-67
2021/03/21 00:04:17;;;;;;;6.32;4.22;;;6.50;99.90;;;;;;5089435;28;20067;-67
2021/03/21 00:06:44;;;;;;;9.50;5.15;;;6.40;99.90;;;;;;5090038;28;20634;-67
2021/03/21 00:09:11;;;;;;;9.88;5.68;;;6.40;99.90;;;;;;5091288;28;20704;-67
2021/03/21 00:11:37;;;;;;;6.55;5.90;;;6.40;99.90;;;;;;5090781;28;20371;-67
2021/03/21 00:14:04;;;;;;;8.13;6.72;;;6.40;99.90;;;;;;5088583;28;20036;-67
2021/03/21 00:16:31;;;;;;;10.32;6.18;;;6.40;99.90;;;;;;5090571;28;20043;-67
2021/03/21 00:18:57;;;;;;;9.30;6.03;;;6.50;99.90;;;;;;5087136;28;20063;-66
2021/03/21 00:21:24;;;;;;;13.05;6.93;;;6.40;99.90;;;;;;5092274;28;20044;-67
2021/03/21 00:23:50;;;;;;;11.95;7.05;;;6.50;99.90;;;;;;5118348;27;20452;-67
2021/03/21 00:26:16;;;;;;;12.95;7.10;;;6.50;99.90;;;;;;5091420;28;20165;-67
2021/03/21 00:28:42;;;;;;;16.08;8.40;;;6.50;99.90;;;;;;5090389;28;20040;-67
2021/03/21 00:31:11;;;;;;;11.32;7.53;;;6.50;99.90;;;;;;5090846;28;20032;-67
2021/03/21 00:33:38;;;;;;;12.65;7.45;;;6.50;99.90;;;;;;5091495;28;20036;-67
2021/03/21 00:36:05;;;;;;;18.08;8.60;;;6.50;99.90;;;;;;5091512;28;20063;-67
2021/03/21 00:38:35;;;;;;;14.18;6.32;;;6.50;99.90;;;;;;5088536;28;20036;-67
2021/03/21 00:41:02;;;;;;;11.75;7.15;;;6.50;99.90;;;;;;5088718;28;20044;-67
2021/03/21 00:43:28;;;;;;;9.95;6.85;;;6.50;99.90;;;;;;5089590;28;20044;-67
2021/03/21 00:45:54;;;;;;;11.82;7.55;;;6.50;99.90;;;;;;5088945;28;20058;-67
2021/03/21 00:48:26;;;;;;;12.98;7.53;;;6.50;99.90;;;;;;5089322;28;20078;-67
2021/03/21 00:50:52;;;;;;;13.05;6.93;;;6.50;99.90;;;;;;5089393;28;20040;-67
2021/03/21 00:53:18;;;;;;;9.52;6.75;;;6.50;99.90;;;;;;5090669;28;20089;-67
2021/03/21 00:55:44;;;;;;;7.78;5.57;;;6.50;99.90;;;;;;5087989;28;20048;-67
2021/03/21 00:58:10;;;;;;;11.02;6.80;;;6.60;99.90;;;;;;5091125;28;20028;-67
2021/03/21 01:00:40;;;;;;;10.65;6.28;;;6.50;99.90;;;;;;5090642;28;20059;-67
2021/03/21 01:03:06;;;;;;;12.77;6.75;;;6.50;99.90;;;;;;5090179;28;20056;-67
2021/03/21 01:05:37;;;;;;;9.38;6.93;;;6.50;99.90;;;;;;5089824;28;20043;-67
2021/03/21 01:08:25;;;;;;;18.20;7.07;;;6.50;99.90;;;;;;5084648;28;20028;-67
2021/03/21 01:10:56;;;;;;;15.10;7.72;;;6.50;99.90;;;;;;5087663;28;20131;-67
2021/03/21 01:13:22;;;;;;;21.33;6.88;;;6.50;99.90;;;;;;5089759;28;20036;-67
2021/03/21 01:15:49;;;;;;;14.15;6.95;;;6.50;99.90;;;;;;5088101;28;20054;-67
2021/03/21 01:18:20;;;;;;;16.40;7.13;;;6.50;99.90;;;;;;5089295;28;20039;-67
2021/03/21 01:20:46;;;;;;;13.38;7.10;;;6.60;99.90;;;;;;5089296;28;20066;-67
2021/03/21 01:23:13;;;;;;;16.58;6.95;;;6.60;99.90;;;;;;5091086;28;20035;-67
2021/03/21 01:25:39;;;;;;;12.80;6.57;;;6.60;99.90;;;;;;5090142;28;20063;-67
2021/03/21 01:28:28;;;;;;;11.57;6.68;;;6.60;99.90;;;;;;5089980;28;20589;-67
2021/03/21 01:30:55;;;;;;;10.10;5.68;;;6.60;99.90;;;;;;5089372;28;20187;-67
2021/03/21 01:33:21;;;;;;;13.48;6.63;;;6.60;99.90;;;;;;5090494;28;20441;-67
2021/03/21 01:35:48;;;;;;;12.05;6.88;;;6.60;99.90;;;;;;5089813;28;20047;-67
2021/03/21 01:38:15;;;;;;;15.43;6.55;;;6.60;99.90;;;;;;5091364;28;20070;-67
2021/03/21 01:40:41;;;;;;;14.05;6.53;;;6.60;99.90;;;;;;5091731;28;20055;-67
2021/03/21 01:43:12;;;;;;;15.65;6.93;;;6.60;99.90;;;;;;5090779;28;21797;-67
2021/03/21 01:45:44;;;;;;;15.20;6.22;;;6.60;99.90;;;;;;5088563;28;20036;-67
2021/03/21 01:48:32;;;;;;;17.65;7.28;;;6.60;99.90;;;;;;5089833;28;20040;-67
2021/03/21 01:50:58;;;;;;;18.52;6.90;;;6.60;99.90;;;;;;5087263;28;20050;-67
2021/03/21 01:53:28;;;;;;;17.08;7.95;;;6.60;99.90;;;;;;5091067;28;20028;-67
2021/03/21 01:55:55;;;;;;;15.85;7.72;;;6.60;99.90;;;;;;5089363;28;20067;-67
2021/03/21 01:58:24;;;;;;;11.60;6.65;;;6.60;99.90;;;;;;5090930;28;20046;-67
2021/03/21 02:00:55;;;;;;;13.13;7.72;;;6.50;99.90;;;;;;5091121;28;20398;-67
2021/03/21 02:03:21;;;;;;;13.18;7.18;;;6.60;99.90;;;;;;5090557;28;20119;-67
2021/03/21 02:05:50;;;;;;;16.65;8.20;;;6.60;99.90;;;;;;5090451;28;20600;-67
2021/03/21 02:09:19;;;;;;;14.20;7.35;;;6.60;99.90;;;;;;5090386;28;20397;-67
2021/03/21 02:12:31;;;;;;;14.25;7.63;;;6.50;99.90;;;;;;5036575;28;20052;-67
2021/03/21 02:15:51;;;;;;;12.95;7.15;;;6.60;99.90;;;;;;5088928;28;20043;-67
2021/03/21 02:18:46;;;;;;;14.75;6.88;;;6.50;99.90;;;;;;5025705;28;20136;-68
2021/03/21 02:21:28;;;;;;;14.77;6.82;;;6.50;99.90;;;;;;5088560;28;21609;-67
2021/03/21 02:24:21;;;;;;;14.73;7.40;;;6.50;99.90;;;;;;5088781;28;20044;-68
2021/03/21 02:26:57;;;;;;;13.07;6.53;;;6.60;99.90;;;;;;5084672;28;20378;-68
2021/03/21 02:29:34;;;;;;;;;;;6.60;99.90;;;;;;5087553;28;20036;-68
2021/03/21 02:32:10;;;;;;;18.42;6.55;;;6.60;99.90;;;;;;5085175;28;19931;-68
2021/03/21 02:35:03;;;;;;;12.65;6.75;;;6.50;99.90;;;;;;5086223;28;20041;-68
2021/03/21 02:37:54;;;;;;;15.50;5.85;;;6.50;99.90;;;;;;5086446;28;20071;-68
2021/03/21 02:40:28;;;;;;;16.65;7.22;;;6.50;99.90;;;;;;5082303;28;20044;-68
2021/03/21 02:43:08;;;;;;;17.52;6.78;;;6.50;99.90;;;;;;5086401;28;20043;-67
2021/03/21 02:45:37;;;;;;;14.50;6.28;;;6.50;99.90;;;;;;5113656;27;20054;-68
2021/03/21 02:48:16;;;;;;;15.95;6.38;;;6.50;99.90;;;;;;5085387;28;20046;-67
2021/03/21 02:50:51;;;;;;;11.98;5.30;;;6.50;99.90;;;;;;5086965;28;20047;-68
2021/03/21 02:53:39;;;;;;;16.05;6.43;;;6.60;99.90;;;;;;5086791;28;20512;-68
2021/03/21 02:56:07;;;;;;;13.05;5.22;;;6.50;99.90;;;;;;5084815;28;20040;-67
2021/03/21 02:59:04;;;;;;;12.90;4.88;;;6.50;99.90;;;;;;5086365;28;20036;-68
2021/03/21 03:01:34;;;;;;;11.35;4.60;;;6.50;99.90;;;;;;5085358;28;20036;-68
2021/03/21 03:04:10;;;;;;;11.10;4.80;;;6.60;99.90;;;;;;5085473;28;20047;-68
2021/03/21 03:06:42;;;;;;;20.00;5.82;;;6.50;99.90;;;;;;5087716;28;20043;-68
2021/03/21 03:09:21;;;;;;;14.85;5.45;;;6.50;99.90;;;;;;5084947;28;20117;-68
2021/03/21 03:11:58;;;;;;;20.73;5.68;;;6.50;99.90;;;;;;5084616;28;20070;-68
2021/03/21 03:14:34;;;;;;;13.52;5.18;;;6.50;99.90;;;;;;5087274;28;20055;-68
2021/03/21 03:17:04;;;;;;;;;;;6.50;99.90;;;;;;5085326;28;20059;-67
2021/03/21 03:19:53;;;;;;;16.25;5.00;;;6.50;99.90;;;;;;5085417;28;19924;-67
2021/03/21 03:22:50;;;;;;;10.73;4.93;;;6.40;99.90;;;;;;5086812;28;20579;-68
2021/03/21 03:25:37;;;;;;;17.73;4.97;;;6.50;99.90;;;;;;5081516;28;20073;-67
2021/03/21 03:28:11;;;;;;;12.05;4.82;;;6.50;99.90;;;;;;5083292;28;20052;-67
2021/03/21 03:31:07;;;;;;;13.07;5.15;;;6.50;99.90;;;;;;5100555;28;20143;-67
2021/03/21 03:33:34;;;;;;;15.70;5.10;;;6.50;99.90;;;;;;5082551;28;20028;-67
2021/03/21 03:36:03;;;;;;;16.42;5.00;;;6.40;99.90;;;;;;5087843;28;20047;-68
2021/03/21 03:38:28;;;;;;;17.58;4.97;;;6.50;99.90;;;;;;5087542;28;20417;-67
2021/03/21 03:41:00;;;;;;;14.13;4.22;;;6.40;99.90;;;;;;5089094;28;20105;-67
2021/03/21 03:43:55;;;;;;;18.27;4.53;;;6.50;99.90;;;;;;5087454;28;20675;-67
2021/03/21 03:46:33;;;;;;;14.45;3.55;;;6.40;99.90;;;;;;5088091;28;20093;-67
2021/03/21 03:49:20;;;;;;;18.85;4.20;;;6.50;99.90;;;;;;5084794;28;20039;-68
2021/03/21 03:52:10;;;;;;;16.63;4.05;;;6.40;99.90;;;;;;5087089;28;20044;-68
2021/03/21 03:55:01;;;;;;;13.65;3.33;;;6.40;99.90;;;;;;5086685;28;20030;-68
2021/03/21 03:57:39;;;;;;;17.27;3.35;;;6.40;99.90;;;;;;5087140;28;20148;-68
2021/03/21 04:00:26;;;;;;;19.30;3.67;;;6.40;99.90;;;;;;5083337;28;20036;-67
2021/03/21 04:03:08;;;;;;;19.00;3.25;;;6.40;99.90;;;;;;5086523;28;21096;-67
2021/03/21 04:05:39;;;;;;;15.60;3.25;;;6.40;99.90;;;;;;5083759;28;20040;-68
2021/03/21 04:08:32;;;;;;;13.50;3.10;;;6.40;99.90;;;;;;5085898;28;20091;-68
2021/03/21 04:11:03;;;;;;;11.65;2.65;;;6.40;99.90;;;;;;5087162;28;20115;-68
2021/03/21 04:13:42;;;;;;;13.38;2.88;;;6.40;99.90;;;;;;5085693;28;20063;-68
2021/03/21 04:16:13;;;;;;;14.52;2.47;;;6.40;99.90;;;;;;5087141;28;20063;-68
2021/03/21 04:18:47;;;;;;;16.67;2.10;;;6.40;99.90;;;;;;5086411;28;21567;-67
2021/03/21 04:21:29;;;;;;;14.65;2.22;;;6.40;99.90;;;;;;5085277;28;20036;-68
2021/03/21 04:24:18;;;;;;;17.58;1.88;;;6.40;99.90;;;;;;5086610;28;20038;-68
2021/03/21 04:27:07;;;;;;;17.88;2.33;;;6.30;99.90;;;;;;5088047;28;20039;-67
2021/03/21 04:29:58;;;;;;;19.23;2.80;;;6.40;99.90;;;;;;5085091;28;20040;-67
2021/03/21 04:32:31;;;;;;;18.77;2.28;;;6.40;99.90;;;;;;5086479;28;20032;-68
2021/03/21 04:35:01;;;;;;;14.25;1.80;;;6.30;99.90;;;;;;5087001;28;20040;-68
2021/03/21 04:37:29;;;;;;;16.15;2.15;;;6.30;99.90;;;;;;5085182;28;20044;-67
2021/03/21 04:39:56;;;;;;;16.65;2.33;;;6.40;99.90;;;;;;5084064;28;20040;-68
2021/03/21 04:42:30;;;;;;;15.07;2.88;;;6.30;99.90;;;;;;5088515;28;20043;-68
2021/03/21 04:44:59;;;;;;;15.95;2.80;;;6.30;99.90;;;;;;5087189;28;20036;-67
2021/03/21 04:48:00;;;;;;;24.35;2.55;;;6.30;99.90;;;;;;5087127;28;20059;-68
2021/03/21 04:50:27;;;;;;;17.98;1.77;;;6.30;99.90;;;;;;5084901;28;20040;-68
2021/03/21 04:53:14;;;;;;;22.33;2.75;;;6.30;99.90;;;;;;5087074;28;20114;-67
2021/03/21 04:55:46;;;;;;;19.25;2.95;;;6.30;99.90;;;;;;5090853;28;20535;-68
2021/03/21 04:58:25;;;;;;;20.98;3.38;;;6.30;99.90;;;;;;5092402;28;20036;-67
2021/03/21 05:00:56;;;;;;;17.73;2.45;;;6.20;99.90;;;;;;5088745;28;20036;-67
2021/03/21 05:03:28;;;;;;;17.83;2.60;;;6.20;99.90;;;;;;5088839;28;20086;-68
2021/03/21 05:06:00;;;;;;;15.38;1.85;;;6.20;99.90;;;;;;5091997;28;20051;-68
2021/03/21 05:08:37;;;;;;;13.32;3.25;;;6.20;99.90;;;;;;5089313;28;20043;-67
2021/03/21 05:11:05;;;;;;;13.05;1.48;;;6.20;99.90;;;;;;5088414;28;20040;-67
2021/03/21 05:13:49;;;;;;;22.85;2.45;;;6.10;99.90;;;;;;5088187;28;20036;-68
2021/03/21 05:16:37;;;;;;;18.90;2.40;;;6.20;99.90;;;;;;5092165;28;20040;-68
2021/03/21 05:19:19;;;;;;;17.48;2.17;;;6.10;99.90;;;;;;5118150;27;20432;-68
2021/03/21 05:22:14;;;;;;;16.85;2.13;;;6.20;99.90;;;;;;5088195;28;20136;-67
2021/03/21 05:24:46;;;;;;;17.75;2.17;;;6.20;99.90;;;;;;5084877;28;20056;-67
2021/03/21 05:27:17;;;;;;;16.42;1.77;;;6.20;99.90;;;;;;5089837;28;20045;-68
2021/03/21 05:30:00;;;;;;;16.20;1.85;;;6.10;99.90;;;;;;5090028;28;20032;-68
2021/03/21 05:32:26;;;;;;;19.45;2.25;;;6.10;99.90;;;;;;5090117;28;20106;-67
2021/03/21 05:34:56;;;;;;;15.07;2.22;;;6.20;99.90;;;;;;5089710;28;20059;-67
2021/03/21 05:37:36;;;;;;;28.05;4.45;;;6.10;99.90;;;;;;5088046;28;20051;-68
2021/03/21 05:40:05;;;;;;;21.45;3.42;;;6.10;99.90;;;;;;5091530;28;20121;-67
2021/03/21 05:42:47;;;;;;;14.02;1.90;;;6.10;99.90;;;;;;5090738;28;20444;-67
2021/03/21 05:45:53;;;;;;;21.05;2.42;;;6.10;99.90;;;;;;5088492;28;20121;-67
2021/03/21 05:48:24;;;;;;;16.80;2.08;;;6.10;99.90;;;;;;5088576;28;20089;-67
2021/03/21 05:51:08;;;;;;;15.70;2.42;;;6.10;99.90;;;;;;5091099;28;20043;-67
2021/03/21 05:53:43;;;;;;;17.98;2.80;;;6.10;99.90;;;;;;5088194;28;20095;-67
2021/03/21 05:56:34;;;;;;;17.35;2.35;;;6.10;99.90;;;;;;5089407;28;20170;-67
2021/03/21 05:59:37;;;;;;;13.75;1.92;;;6.10;99.90;;;;;;5088002;28;20032;-67
2021/03/21 06:02:12;;;;;;;18.55;2.47;;;6.10;99.90;;;;;;5088402;28;20036;-67
2021/03/21 06:04:59;;;;;;;23.98;2.83;;;6.10;99.70;;;;;;5090851;28;20108;-67
2021/03/21 06:08:05;;;;;;;24.67;3.38;;;6.10;99.20;;;;;;5090755;28;20075;-67
2021/03/21 06:11:05;;;;;;;22.55;3.00;;;6.10;99.10;;;;;;5085772;28;20085;-67
2021/03/21 06:13:44;;;;;;;23.85;3.65;;;6.10;99.60;;;;;;5085889;28;20032;-67
2021/03/21 06:16:37;;;;;;;24.65;3.38;;;6.10;99.60;;;;;;5083766;28;20040;-67
2021/03/21 06:19:34;;;;;;;23.60;4.07;;;6.20;99.80;;;;;;5087021;28;20039;-67
2021/03/21 06:22:18;;;;;;;;;;;6.10;99.70;;;;;;5086731;28;20115;-67
2021/03/21 06:25:08;;;;;;;27.33;4.38;;;6.10;99.70;;;;;;5085713;28;19919;-67
2021/03/21 06:27:43;;;;;;;48.22;5.65;;;6.10;99.50;;;;;;5086107;28;20379;-67
2021/03/21 06:30:25;;;;;;;33.28;5.25;;;6.20;99.50;;;;;;5085429;28;20089;-67
2021/03/21 06:33:11;;;;;;;26.80;3.78;;;6.10;99.60;;;;;;5086526;28;20040;-67
2021/03/21 06:36:03;;;;;;;31.63;5.13;;;6.20;99.80;;;;;;5081862;28;20036;-67
2021/03/21 06:38:41;;;;;;;24.80;3.53;;;6.20;99.30;;;;;;5087049;28;20100;-67
2021/03/21 06:41:06;;;;;;;36.28;5.07;;;6.10;98.70;;;;;;5086924;28;20028;-67
2021/03/21 06:43:44;;;;;;;33.13;5.55;;;6.20;98.50;;;;;;5088634;28;20463;-67
2021/03/21 06:46:13;;;;;;;26.73;3.55;;;6.20;98.40;;;;;;5087641;28;20035;-67
2021/03/21 06:48:47;;;;;;;33.85;5.22;;;6.20;98.70;;;;;;5088152;28;20039;-67
2021/03/21 06:51:22;;;;;;;34.10;5.35;;;6.20;98.60;;;;;;5086824;28;20520;-67
2021/03/21 06:54:11;;;;;;;33.38;5.70;;;6.10;97.90;;;;;;5085858;28;20044;-67
2021/03/21 06:56:40;;;;;;;40.00;5.32;;;6.10;98.30;;;;;;5088996;28;20040;-67
2021/03/21 06:59:43;;;;;;;31.83;5.55;;;6.20;97.80;;;;;;5088394;28;20045;-67
2021/03/21 07:02:11;;;;;;;29.60;5.13;;;6.20;97.70;;;;;;5088326;28;20032;-67
2021/03/21 07:05:16;;;;;;;28.00;4.78;;;6.20;97.70;;;;;;5085559;28;20046;-67
2021/03/21 07:08:04;;;;;;;32.45;6.60;;;6.30;97.80;;;;;;5078735;28;20148;-67
2021/03/21 07:10:38;;;;;;;34.20;5.53;;;6.30;97.60;;;;;;5085447;28;20040;-67
2021/03/21 07:13:49;;;;;;;34.42;5.88;;;6.30;97.40;;;;;;5088102;28;20036;-67
2021/03/21 07:16:30;;;;;;;34.25;4.97;;;6.30;97.10;;;;;;5084185;28;20036;-67
2021/03/21 07:19:25;;;;;;;34.67;5.78;;;6.40;97.10;;;;;;5084892;28;20068;-67
2021/03/21 07:22:19;;;;;;;34.63;5.72;;;6.40;97.10;;;;;;5085006;28;20068;-67
2021/03/21 07:25:21;;;;;;;39.22;5.22;;;6.40;97.20;;;;;;5085011;28;20040;-67
2021/03/21 07:27:56;;;;;;;44.13;6.72;;;6.40;97.10;;;;;;5086326;28;20048;-67
2021/03/21 07:30:37;;;;;;;32.17;4.82;;;6.40;97.10;;;;;;5085542;28;20136;-67
2021/03/21 07:33:37;;;;;;;38.75;6.22;;;6.50;96.90;;;;;;5088703;28;20032;-67
2021/03/21 07:36:26;;;;;;;28.20;4.43;;;6.50;96.90;;;;;;5085346;28;20478;-67
2021/03/21 07:39:20;;;;;;;34.53;5.72;;;6.60;97.00;;;;;;5087997;28;20347;-67
2021/03/21 07:42:00;;;;;;;35.17;5.75;;;6.60;97.20;;;;;;5089113;28;20036;-67
2021/03/21 07:44:53;;;;;;;34.88;5.68;;;6.60;97.30;;;;;;5089437;28;20032;-67
2021/03/21 07:47:57;;;;;;;39.38;6.15;;;6.60;97.60;;;;;;5090560;28;20066;-67
2021/03/21 07:50:56;;;;;;;35.83;5.47;;;6.60;97.90;;;;;;5087502;28;20040;-67
2021/03/21 07:53:31;;;;;;;32.60;5.18;;;6.60;97.30;;;;;;5087240;28;20036;-67
2021/03/21 07:56:16;;;;;;;42.15;6.70;;;6.60;97.30;;;;;;5088316;28;20527;-67
2021/03/21 07:58:47;;;;;;;41.85;6.55;;;6.70;97.00;;;;;;5088330;28;20409;-67
2021/03/21 08:01:15;;;;;;;31.38;5.32;;;6.70;96.90;;;;;;5088205;28;20125;-67
2021/03/21 08:04:05;;;;;;;40.60;6.05;;;6.70;96.80;;;;;;5084062;28;20101;-67
2021/03/21 08:06:42;;;;;;;38.88;5.78;;;6.70;96.70;;;;;;5088945;28;20406;-67
2021/03/21 08:09:21;;;;;;;39.83;4.70;;;6.80;96.70;;;;;;5087442;28;20111;-67
2021/03/21 08:11:51;;;;;;;35.17;5.13;;;6.80;96.30;;;;;;5087629;28;20039;-67
2021/03/21 08:14:28;;;;;;;38.03;7.18;;;6.90;96.20;;;;;;5087892;28;20048;-67
2021/03/21 08:16:57;;;;;;;32.35;5.50;;;6.90;95.70;;;;;;5088174;28;20036;-67
2021/03/21 08:19:27;;;;;;;30.67;5.28;;;7.00;95.40;;;;;;5088317;28;20482;-67
2021/03/21 08:21:55;;;;;;;44.75;7.20;;;7.10;95.70;;;;;;5087925;28;20040;-67
2021/03/21 08:24:29;;;;;;;32.38;5.65;;;7.00;95.70;;;;;;5088525;28;20040;-67
2021/03/21 08:26:57;;;;;;;34.88;4.93;;;7.10;96.20;;;;;;5089121;28;20086;-67
2021/03/21 08:29:26;;;;;;;40.25;8.25;;;7.20;95.60;;;;;;5091983;28;20412;-67
2021/03/21 08:32:09;;;;;;;36.15;6.38;;;7.20;95.80;;;;;;5086872;28;20036;-67
2021/03/21 08:34:45;;;;;;;34.25;4.85;;;7.30;95.40;;;;;;5090651;28;20417;-67
2021/03/21 08:37:13;;;;;;;;;;;7.30;95.30;;;;;;5089303;28;20394;-67
2021/03/21 08:39:45;;;;;;;37.42;5.60;;;7.30;94.30;;;;;;5091393;28;19924;-67
2021/03/21 08:42:30;;;;;;;32.10;5.65;;;7.40;95.00;;;;;;5094079;28;20470;-67
2021/03/21 08:45:21;;;;;;;35.72;7.18;;;7.40;95.00;;;;;;5092120;28;20132;-67
2021/03/21 08:47:56;;;;;;;31.90;5.90;;;7.40;94.90;;;;;;5089407;28;20113;-67
2021/03/21 08:50:46;;;;;;;37.83;7.60;;;7.40;94.70;;;;;;5120925;27;20599;-67
2021/03/21 08:53:53;;;;;;;41.42;6.68;;;7.40;94.20;;;;;;5089828;28;20422;-67
2021/03/21 08:56:24;;;;;;;31.23;5.82;;;7.40;94.70;;;;;;5089996;28;20375;-67
2021/03/21 08:59:24;;;;;;;28.33;5.03;;;7.20;93.80;;;;;;5091851;28;20085;-67
2021/03/21 09:01:57;;;;;;;29.00;4.57;;;7.20;94.10;;;;;;5091448;28;20036;-67
2021/03/21 09:04:25;;;;;;;35.22;5.10;;;7.20;93.60;;;;;;5091888;28;20035;-67
2021/03/21 09:06:52;;;;;;;33.90;5.82;;;7.20;94.30;;;;;;5090801;28;20047;-67
2021/03/21 09:09:27;;;;;;;38.33;7.18;;;7.20;94.30;;;;;;5091323;28;20052;-67
2021/03/21 09:11:56;;;;;;;29.37;5.37;;;7.20;94.10;;;;;;5092609;28;20050;-67
2021/03/21 09:14:28;;;;;;;37.90;6.10;;;7.20;94.40;;;;;;5090568;28;20829;-67
2021/03/21 09:16:59;;;;;;;35.53;5.35;;;7.30;94.50;;;;;;5088035;28;20402;-67
2021/03/21 09:19:29;;;;;;;29.90;7.13;;;7.40;95.40;;;;;;5088051;28;20036;-67
2021/03/21 09:21:55;;;;;;;31.55;6.50;;;7.40;93.80;;;;;;5087801;28;20494;-67
2021/03/21 09:24:23;;;;;;;28.60;6.15;;;7.40;94.10;;;;;;5089378;28;20051;-67
2021/03/21 09:26:50;;;;;;;34.53;7.20;;;7.30;93.50;;;;;;5088741;28;20036;-67
2021/03/21 09:29:21;;;;;;;36.63;5.63;;;7.40;94.60;;;;;;5088185;28;20107;-67
2021/03/21 09:31:50;;;;;;;35.15;5.82;;;7.50;93.90;;;;;;5088071;28;20036;-67
2021/03/21 09:34:44;;;;;;;36.83;5.88;;;7.70;93.60;;;;;;5085808;28;20127;-67
2021/03/21 09:37:14;;;;;;;39.60;7.32;;;7.70;93.40;;;;;;5086483;28;20028;-67
2021/03/21 09:39:54;;;;;;;43.13;7.30;;;7.70;94.10;;;;;;5085788;28;20111;-67
2021/03/21 09:42:21;;;;;;;37.33;5.88;;;7.80;94.50;;;;;;5086631;28;20043;-67
2021/03/21 09:44:47;;;;;;;38.55;7.97;;;7.80;94.30;;;;;;5087775;28;20044;-67
2021/03/21 09:47:21;;;;;;;36.50;6.53;;;7.70;94.00;;;;;;5086962;28;20473;-67
2021/03/21 09:50:02;;;;;;;47.60;7.88;;;7.70;93.50;;;;;;5089067;28;20070;-67
2021/03/21 09:52:42;;;;;;;40.63;5.75;;;7.70;94.20;;;;;;5088976;28;20071;-67
2021/03/21 09:55:18;;;;;;;33.03;6.60;;;7.70;93.80;;;;;;5088297;28;20154;-67
2021/03/21 09:57:57;;;;;;;30.75;6.07;;;7.60;94.10;;;;;;5086803;28;20498;-67
2021/03/21 10:00:28;;;;;;;35.15;5.57;;;7.50;92.90;;;;;;5086922;28;20046;-67
2021/03/21 10:03:03;;;;;;;45.13;9.32;;;7.60;93.50;;;;;;5088635;28;20516;-67
2021/03/21 10:05:35;;;;;;;33.90;7.80;;;7.50;92.20;;;;;;5086499;28;20047;-67
2021/03/21 10:08:37;;;;;;;43.13;7.05;;;7.40;92.90;;;;;;5087837;28;20968;-67
2021/03/21 10:11:07;;;;;;;38.00;5.32;;;7.50;93.50;;;;;;5085168;28;20036;-67
2021/03/21 10:13:42;;;;;;;33.63;6.80;;;7.60;93.90;;;;;;5088059;28;20382;-67
2021/03/21 10:16:08;;;;;;;39.40;6.10;;;7.70;93.40;;;;;;5089876;28;20505;-67
2021/03/21 10:18:48;;;;;;;30.83;5.82;;;7.80;93.10;;;;;;5087745;28;20032;-67
2021/03/21 10:21:23;;;;;;;37.08;5.78;;;7.80;92.90;;;;;;5087585;28;20036;-67
2021/03/21 10:23:49;;;;;;;40.15;6.22;;;7.90;92.10;;;;;;5088610;28;20036;-67
2021/03/21 10:26:17;;;;;;;37.78;5.93;;;7.90;92.60;;;;;;5088829;28;20051;-67
2021/03/21 10:28:46;;;;;;;46.13;6.88;;;7.90;93.00;;;;;;5087368;28;20432;-67
2021/03/21 10:31:27;;;;;;;34.67;7.10;;;7.90;92.20;;;;;;5086650;28;20121;-67
2021/03/21 10:34:15;;;;;;;35.03;6.18;;;7.80;92.80;;;;;;5088458;28;20040;-67
2021/03/21 10:36:41;;;;;;;38.65;7.45;;;7.70;92.90;;;;;;5085960;28;20055;-67
2021/03/21 10:39:33;;;;;;;40.78;6.10;;;7.70;93.20;;;;;;5087972;28;20036;-67
2021/03/21 10:42:13;;;;;;;29.02;5.28;;;7.70;91.80;;;;;;5084448;28;20063;-67
2021/03/21 10:44:39;;;;;;;33.20;5.50;;;7.60;91.70;;;;;;5088162;28;20051;-67
2021/03/21 10:47:33;;;;;;;34.58;6.57;;;7.70;92.60;;;;;;5084632;28;20170;-67
2021/03/21 10:50:03;;;;;;;35.45;5.65;;;7.80;92.90;;;;;;5085373;28;20032;-67
2021/03/21 10:52:34;;;;;;;35.47;7.85;;;7.70;92.30;;;;;;5086948;28;20047;-66
2021/03/21 10:55:21;;;;;;;31.25;6.45;;;7.70;92.20;;;;;;5089724;28;20032;-67
2021/03/21 10:57:49;;;;;;;34.97;6.50;;;7.70;91.70;;;;;;5086548;28;20044;-67
2021/03/21 11:00:26;;;;;;;31.65;5.97;;;7.80;92.10;;;;;;5089846;28;20039;-67
2021/03/21 11:03:00;;;;;;;45.67;6.68;;;7.80;92.00;;;;;;5089055;28;20036;-67
2021/03/21 11:05:34;;;;;;;34.17;7.15;;;7.80;91.60;;;;;;5087540;28;20067;-66
2021/03/21 11:08:15;;;;;;;32.95;6.93;;;7.80;91.20;;;;;;5088765;28;20071;-67
2021/03/21 11:10:52;;;;;;;33.63;6.47;;;7.70;92.10;;;;;;5086259;28;20044;-67
2021/03/21 11:13:38;;;;;;;53.63;8.73;;;7.80;92.40;;;;;;5086963;28;20483;-67
2021/03/21 11:16:19;;;;;;;;;;;7.80;93.20;;;;;;5087611;28;20036;-66
2021/03/21 11:19:00;;;;;;;36.60;6.43;;;7.80;92.30;;;;;;5087549;28;20522;-66
2021/03/21 11:21:31;;;;;;;38.97;5.65;;;7.80;93.10;;;;;;5088367;28;20069;-67
2021/03/21 11:24:05;;;;;;;36.38;7.28;;;7.80;92.50;;;;;;5087146;28;20139;-66
2021/03/21 11:26:37;;;;;;;27.48;5.18;;;7.90;92.30;;;;;;5085052;28;20090;-66
2021/03/21 11:29:05;;;;;;;37.05;6.30;;;7.70;88.90;;;;;;5087765;28;20036;-66
2021/03/21 11:31:53;;;;;;;38.30;5.90;;;7.70;90.90;;;;;;5086187;28;20706;-66
2021/03/21 11:34:28;;;;;;;34.03;5.97;;;7.70;91.20;;;;;;5086184;28;20093;-66
2021/03/21 11:37:12;;;;;;;39.95;7.07;;;7.70;91.70;;;;;;5087228;28;20036;-66
2021/03/21 11:39:40;;;;;;;29.23;6.55;;;7.80;90.90;;;;;;5086710;28;20406;-67
2021/03/21 11:42:21;;;;;;;28.98;6.30;;;7.70;90.90;;;;;;5084716;28;20048;-66
2021/03/21 11:44:52;;;;;;;30.95;5.38;;;7.80;91.80;;;;;;5087262;28;20126;-66
2021/03/21 11:47:31;;;;;;;29.60;5.82;;;7.80;91.30;;;;;;5086472;28;20032;-66
2021/03/21 11:49:59;;;;;;;31.05;5.47;;;7.90;91.00;;;;;;5088953;28;20032;-66
2021/03/21 11:52:27;;;;;;;32.25;5.97;;;8.00;91.00;;;;;;5086296;28;20040;-66
2021/03/21 11:54:54;;;;;;;25.42;5.90;;;8.00;90.40;;;;;;5086133;28;20043;-66
2021/03/21 11:57:25;;;;;;;33.35;5.03;;;7.60;89.90;;;;;;5086478;28;20048;-66
2021/03/21 12:00:16;;;;;;;35.72;5.25;;;7.90;91.00;;;;;;5087838;28;20036;-66
2021/03/21 12:02:59;;;;;;;30.85;5.55;;;7.90;90.70;;;;;;5090081;28;20043;-66
2021/03/21 12:05:29;;;;;;;29.42;5.63;;;8.00;90.30;;;;;;5090527;28;20047;-66
2021/03/21 12:08:06;;;;;;;29.02;4.57;;;7.90;88.40;;;;;;5091838;28;20119;-66
2021/03/21 12:10:36;;;;;;;29.65;6.07;;;7.90;89.60;;;;;;5088763;28;20044;-66
2021/03/21 12:13:23;;;;;;;35.47;5.90;;;7.90;89.10;;;;;;5090180;28;20036;-66
2021/03/21 12:15:51;;;;;;;31.25;5.63;;;7.70;87.60;;;;;;5087959;28;20044;-66
2021/03/21 12:18:18;;;;;;;26.35;5.50;;;7.90;90.30;;;;;;5091289;28;20039;-66
2021/03/21 12:20:54;;;;;;;35.80;5.68;;;7.80;87.60;;;;;;5089837;28;20551;-66
2021/03/21 12:23:33;;;;;;;27.90;7.07;;;8.00;91.30;;;;;;5089644;28;20040;-66
2021/03/21 12:26:12;;;;;;;32.65;5.05;;;8.10;90.60;;;;;;5089649;28;20145;-66
2021/03/21 12:28:48;;;;;;;30.08;6.15;;;8.20;91.40;;;;;;5089617;28;20065;-66
2021/03/21 12:31:19;;;;;;;31.50;5.22;;;8.20;90.20;;;;;;5088218;28;20474;-67
2021/03/21 12:33:45;;;;;;;30.00;5.85;;;8.20;90.20;;;;;;5091591;28;20036;-67
2021/03/21 12:36:16;;;;;;;26.73;5.07;;;8.20;89.70;;;;;;5089571;28;20107;-66
2021/03/21 12:38:52;;;;;;;32.00;6.55;;;8.20;90.10;;;;;;5089539;28;20040;-67
2021/03/21 12:41:32;;;;;;;32.35;4.97;;;8.20;89.90;;;;;;5088484;28;20505;-67
2021/03/21 12:44:15;;;;;;;24.08;5.10;;;8.20;89.70;;;;;;5092600;28;20040;-67
2021/03/21 12:46:48;;;;;;;34.80;6.72;;;8.30;90.30;;;;;;5090477;28;20117;-66
2021/03/21 12:49:41;;;;;;;36.50;6.20;;;8.40;90.10;;;;;;5090098;28;20140;-66
2021/03/21 12:52:17;;;;;;;31.73;5.00;;;8.40;90.50;;;;;;5088548;28;20410;-66
2021/03/21 12:54:45;;;;;;;24.92;5.47;;;8.40;89.80;;;;;;5087036;28;20043;-67
2021/03/21 12:57:12;;;;;;;37.03;5.88;;;8.40;89.50;;;;;;5088750;28;20590;-67
2021/03/21 12:59:41;;;;;;;37.47;6.20;;;8.50;89.20;;;;;;5092074;28;20081;-67
2021/03/21 13:02:18;;;;;;;28.50;4.85;;;8.50;90.20;;;;;;5088062;28;20180;-67
2021/03/21 13:04:44;;;;;;;30.38;5.25;;;8.40;88.40;;;;;;5092461;28;20464;-67
2021/03/21 13:07:11;;;;;;;22.50;5.70;;;8.30;89.30;;;;;;5088377;28;20079;-66
2021/03/21 13:09:38;;;;;;;27.13;5.75;;;8.40;89.50;;;;;;5091451;28;20109;-66
2021/03/21 13:12:04;;;;;;;31.05;5.47;;;8.30;89.70;;;;;;5091087;28;20028;-67
2021/03/21 13:14:29;;;;;;;32.47;5.32;;;8.30;90.50;;;;;;5088092;28;20100;-67
2021/03/21 13:16:55;;;;;;;35.42;6.53;;;8.30;91.10;;;;;;5089153;28;20032;-66
2021/03/21 13:19:20;;;;;;;38.17;5.90;;;8.30;91.50;;;;;;5090292;28;20043;-66
2021/03/21 13:21:48;;;;;;;33.97;5.55;;;8.30;90.80;;;;;;5090861;28;20064;-67
2021/03/21 13:24:14;;;;;;;27.85;5.15;;;8.20;90.60;;;;;;5089015;28;20032;-66
2021/03/21 13:26:40;;;;;;;24.95;4.57;;;8.20;90.00;;;;;;5087509;28;20058;-66
2021/03/21 13:29:05;;;;;;;33.75;6.82;;;8.10;90.00;;;;;;5089087;28;20054;-66
2021/03/21 13:31:31;;;;;;;26.17;4.47;;;8.00;89.70;;;;;;5085558;28;20036;-66
2021/03/21 13:33:57;;;;;;;27.13;4.93;;;8.00;90.00;;;;;;5087550;28;20502;-67
2021/03/21 13:36:23;;;;;;;37.22;5.90;;;8.00;90.40;;;;;;5091184;28;20040;-66
2021/03/21 13:38:50;;;;;;;30.73;5.22;;;7.80;87.50;;;;;;5090149;28;20094;-66